Latest METAR Data

Below are the latest METARs ("Meteorological Services to Airmen Reports"), for RNAS Culdrose and Newquay Airport.

EGDR - RNAS Culdrose
Distance from station: SW 6mi, 9km
Updated: Sat, 18-Jan-2020 10:50am GMT
Clear
Clear
 Wind from ENE
Wind: ENE 13 mph , 20 km/h
Temperature: 43°F , 6°C
Wind Chill: 36°F , 2°C
Dew Point: 43°F , 6°C
Humidity: 100%
Barometer: 30.33 inHg , 1027 hPa
Clouds: Clear
Visibility: 6 miles , 10 km
2020/01/18 10:50 EGDR 181050Z AUTO 07011KT 9999 // NCD 06/06 Q1027
EGHQ - Newquay Airport
Distance from station: NE 21mi, 34km
Updated: Sat, 18-Jan-2020 11:20am GMT
Clear
Clear
 Wind from E
Wind: E 8 mph , 13 km/h
Temperature: 43°F , 6°C
Wind Chill: 38°F , 3°C
Dew Point: 37°F , 3°C
Humidity: 81%
Barometer: 30.36 inHg , 1028 hPa
Summary: Clear
Visibility: greater than 7 miles , 10 km
2020/01/18 11:20 EGHQ 181120Z 10007KT CAVOK 06/03 Q1028
 
EGTE - Exeter Airport
Distance from station: ENE 88mi, 141km
Updated: Sat, 18-Jan-2020 11:20am GMT
Freezing fog, Partly cloudy
Freezing fog, Partly cloudy
 Wind from varies
Wind: varies 2 mph , 4 km/h
Temperature: 32°F , 0°C
Dew Point: 32°F , 0°C
Humidity: 100%
Barometer: 30.39 inHg , 1029 hPa
Summary: Freezing Fog
Clouds: Partly Cloudy
Visibility: 0 mile , 0 km
2020/01/18 11:20 EGTE 181120Z VRB02KT 0200 R26/0375 FZFG NSC M00/M00 Q1029
EGHE - St Marys, IOS
Distance from station: W 51mi, 82km
Updated: Sat, 18-Jan-2020 10:20am GMT
Partly Cloudy
Partly Cloudy
 Wind from E
Wind: E 18 mph , 30 km/h
Temperature: 48°F , 9°C
Wind Chill: 41°F , 5°C
Dew Point: 39°F , 4°C
Humidity: 71%
Barometer: 30.3 inHg , 1026 hPa
Clouds: Partly Cloudy
Visibility: 6 miles , 10 km
Cloud details: Partly Cloudy 2000 ft
2020/01/18 10:20 EGHE 181020Z 10016KT 9999 SCT020 09/04 Q1026

Metar display script from Saratoga-Weather.org

 

 

UK - WEATHER STATION TOPSITES - UK World Weather Websites

Copyright © Carnkie Weather 2009 - 2020.